sensor_id;sensor_type;location;lat;lon;timestamp;pressure;altitude;pressure_sealevel;temperature;humidity
1480;BME280;732;51.698;4.886;2022-12-18T00:00:14;102962.63;;;-4.11;100.00
1480;BME280;732;51.698;4.886;2022-12-18T00:02:44;102948.19;;;-4.19;100.00
1480;BME280;732;51.698;4.886;2022-12-18T00:05:13;102963.69;;;-4.09;100.00
1480;BME280;732;51.698;4.886;2022-12-18T00:07:41;102951.47;;;-4.12;100.00
1480;BME280;732;51.698;4.886;2022-12-18T00:10:10;102953.13;;;-4.12;100.00
1480;BME280;732;51.698;4.886;2022-12-18T00:12:42;102948.75;;;-4.13;100.00
1480;BME280;732;51.698;4.886;2022-12-18T00:15:11;102945.91;;;-4.16;100.00
1480;BME280;732;51.698;4.886;2022-12-18T00:17:40;102939.72;;;-4.18;100.00
1480;BME280;732;51.698;4.886;2022-12-18T00:20:09;102938.25;;;-4.25;100.00
1480;BME280;732;51.698;4.886;2022-12-18T00:22:38;102938.53;;;-4.22;100.00
1480;BME280;732;51.698;4.886;2022-12-18T00:25:08;102914.09;;;-4.35;100.00
1480;BME280;732;51.698;4.886;2022-12-18T00:27:36;102932.91;;;-4.18;100.00
1480;BME280;732;51.698;4.886;2022-12-18T00:30:08;102909.09;;;-4.25;100.00
1480;BME280;732;51.698;4.886;2022-12-18T00:32:37;102922.84;;;-4.25;100.00
1480;BME280;732;51.698;4.886;2022-12-18T00:35:07;102921.72;;;-4.18;100.00
1480;BME280;732;51.698;4.886;2022-12-18T00:37:36;102923.78;;;-4.33;100.00
1480;BME280;732;51.698;4.886;2022-12-18T00:40:06;102921.19;;;-4.33;100.00
1480;BME280;732;51.698;4.886;2022-12-18T00:42:36;102891.19;;;-4.42;100.00
1480;BME280;732;51.698;4.886;2022-12-18T00:45:29;102890.00;;;-4.46;100.00
1480;BME280;732;51.698;4.886;2022-12-18T00:47:58;102889.84;;;-4.47;100.00
1480;BME280;732;51.698;4.886;2022-12-18T00:50:26;102898.16;;;-4.50;100.00
1480;BME280;732;51.698;4.886;2022-12-18T00:52:54;102915.34;;;-4.40;100.00
1480;BME280;732;51.698;4.886;2022-12-18T00:55:23;102904.06;;;-4.51;100.00
1480;BME280;732;51.698;4.886;2022-12-18T00:57:51;102867.16;;;-4.78;100.00
1480;BME280;732;51.698;4.886;2022-12-18T01:00:21;102902.91;;;-4.71;100.00
1480;BME280;732;51.698;4.886;2022-12-18T01:02:51;102900.69;;;-4.85;100.00
1480;BME280;732;51.698;4.886;2022-12-18T01:05:20;102932.41;;;-4.85;100.00
1480;BME280;732;51.698;4.886;2022-12-18T01:07:48;102936.47;;;-4.87;100.00
1480;BME280;732;51.698;4.886;2022-12-18T01:10:17;102937.06;;;-4.89;100.00
1480;BME280;732;51.698;4.886;2022-12-18T01:12:46;102916.56;;;-5.07;100.00
1480;BME280;732;51.698;4.886;2022-12-18T01:15:18;102936.31;;;-4.97;100.00
1480;BME280;732;51.698;4.886;2022-12-18T01:17:46;102922.47;;;-5.08;100.00
1480;BME280;732;51.698;4.886;2022-12-18T01:20:16;102922.00;;;-5.12;100.00
1480;BME280;732;51.698;4.886;2022-12-18T01:22:45;102887.94;;;-5.54;100.00
1480;BME280;732;51.698;4.886;2022-12-18T01:25:13;102924.16;;;-5.34;100.00
1480;BME280;732;51.698;4.886;2022-12-18T01:27:43;102893.38;;;-5.59;100.00
1480;BME280;732;51.698;4.886;2022-12-18T01:30:12;102926.72;;;-5.51;100.00
1480;BME280;732;51.698;4.886;2022-12-18T01:32:41;102931.06;;;-5.58;100.00
1480;BME280;732;51.698;4.886;2022-12-18T01:35:09;102935.88;;;-5.61;100.00
1480;BME280;732;51.698;4.886;2022-12-18T01:37:39;102888.81;;;-5.96;100.00
1480;BME280;732;51.698;4.886;2022-12-18T01:40:09;102922.88;;;-5.88;100.00
1480;BME280;732;51.698;4.886;2022-12-18T01:42:37;102880.16;;;-6.22;100.00
1480;BME280;732;51.698;4.886;2022-12-18T01:45:26;102915.28;;;-6.13;100.00
1480;BME280;732;51.698;4.886;2022-12-18T01:47:58;102929.44;;;-6.16;100.00
1480;BME280;732;51.698;4.886;2022-12-18T01:50:31;102911.03;;;-6.21;100.00
1480;BME280;732;51.698;4.886;2022-12-18T01:53:06;102902.00;;;-6.26;100.00
1480;BME280;732;51.698;4.886;2022-12-18T01:55:37;102921.56;;;-6.18;100.00
1480;BME280;732;51.698;4.886;2022-12-18T01:58:09;102928.47;;;-6.25;100.00
1480;BME280;732;51.698;4.886;2022-12-18T02:00:37;102919.25;;;-6.40;100.00
1480;BME280;732;51.698;4.886;2022-12-18T02:03:06;102934.66;;;-6.32;100.00
1480;BME280;732;51.698;4.886;2022-12-18T02:05:50;102929.03;;;-6.45;100.00
1480;BME280;732;51.698;4.886;2022-12-18T02:08:34;102938.50;;;-6.44;100.00
1480;BME280;732;51.698;4.886;2022-12-18T02:11:08;102929.09;;;-6.60;100.00
1480;BME280;732;51.698;4.886;2022-12-18T02:13:45;102906.59;;;-6.71;100.00
1480;BME280;732;51.698;4.886;2022-12-18T02:16:23;102905.81;;;-6.79;100.00
1480;BME280;732;51.698;4.886;2022-12-18T02:18:57;102938.06;;;-6.72;100.00
1480;BME280;732;51.698;4.886;2022-12-18T02:21:34;102936.25;;;-6.73;100.00
1480;BME280;732;51.698;4.886;2022-12-18T02:24:24;102895.63;;;-6.95;100.00
1480;BME280;732;51.698;4.886;2022-12-18T02:26:59;102918.56;;;-6.87;100.00
1480;BME280;732;51.698;4.886;2022-12-18T02:29:35;102920.06;;;-6.89;100.00
1480;BME280;732;51.698;4.886;2022-12-18T02:32:09;102917.78;;;-6.95;100.00
1480;BME280;732;51.698;4.886;2022-12-18T02:34:40;102881.22;;;-7.18;100.00
1480;BME280;732;51.698;4.886;2022-12-18T02:37:16;102918.19;;;-6.99;100.00
1480;BME280;732;51.698;4.886;2022-12-18T02:39:49;102910.94;;;-7.03;100.00
1480;BME280;732;51.698;4.886;2022-12-18T02:42:22;102906.41;;;-7.06;100.00
1480;BME280;732;51.698;4.886;2022-12-18T02:44:52;102892.78;;;-7.22;100.00
1480;BME280;732;51.698;4.886;2022-12-18T02:47:29;102832.19;;;-7.62;100.00
1480;BME280;732;51.698;4.886;2022-12-18T02:50:10;102913.78;;;-7.24;100.00
1480;BME280;732;51.698;4.886;2022-12-18T02:52:49;102874.09;;;-7.45;100.00
1480;BME280;732;51.698;4.886;2022-12-18T02:55:32;102906.22;;;-7.31;100.00
1480;BME280;732;51.698;4.886;2022-12-18T02:58:16;102831.31;;;-7.63;100.00
1480;BME280;732;51.698;4.886;2022-12-18T03:00:56;102874.41;;;-7.42;100.00
1480;BME280;732;51.698;4.886;2022-12-18T03:03:33;102853.63;;;-7.53;100.00
1480;BME280;732;51.698;4.886;2022-12-18T03:06:08;102896.28;;;-7.37;100.00
1480;BME280;732;51.698;4.886;2022-12-18T03:08:42;102872.22;;;-7.54;100.00
1480;BME280;732;51.698;4.886;2022-12-18T03:11:13;102889.94;;;-7.40;100.00
1480;BME280;732;51.698;4.886;2022-12-18T03:13:51;102889.94;;;-7.40;100.00
1480;BME280;732;51.698;4.886;2022-12-18T03:16:25;102876.16;;;-7.49;100.00
1480;BME280;732;51.698;4.886;2022-12-18T03:19:01;102867.53;;;-7.58;100.00
1480;BME280;732;51.698;4.886;2022-12-18T03:21:35;102881.28;;;-7.49;100.00
1480;BME280;732;51.698;4.886;2022-12-18T03:24:07;102849.84;;;-7.72;100.00
1480;BME280;732;51.698;4.886;2022-12-18T03:26:43;102837.00;;;-7.81;100.00
1480;BME280;732;51.698;4.886;2022-12-18T03:29:24;102883.78;;;-7.58;100.00
1480;BME280;732;51.698;4.886;2022-12-18T03:32:02;102859.31;;;-7.71;100.00
1480;BME280;732;51.698;4.886;2022-12-18T03:34:35;102882.94;;;-7.65;100.00
1480;BME280;732;51.698;4.886;2022-12-18T03:37:07;102873.31;;;-7.68;100.00
1480;BME280;732;51.698;4.886;2022-12-18T03:39:36;102825.66;;;-7.92;100.00
1480;BME280;732;51.698;4.886;2022-12-18T03:42:12;102864.41;;;-7.71;100.00
1480;BME280;732;51.698;4.886;2022-12-18T03:44:56;102848.63;;;-7.76;100.00
1480;BME280;732;51.698;4.886;2022-12-18T03:47:28;102845.88;;;-7.77;100.00
1480;BME280;732;51.698;4.886;2022-12-18T03:50:10;102854.13;;;-7.80;100.00
1480;BME280;732;51.698;4.886;2022-12-18T03:52:51;102851.59;;;-7.80;100.00
1480;BME280;732;51.698;4.886;2022-12-18T03:55:23;102842.28;;;-7.79;100.00
1480;BME280;732;51.698;4.886;2022-12-18T03:57:59;102839.38;;;-7.82;100.00
1480;BME280;732;51.698;4.886;2022-12-18T04:00:40;102840.16;;;-7.83;100.00
1480;BME280;732;51.698;4.886;2022-12-18T04:03:11;102835.28;;;-7.89;100.00
1480;BME280;732;51.698;4.886;2022-12-18T04:05:46;102831.97;;;-7.88;100.00
1480;BME280;732;51.698;4.886;2022-12-18T04:08:18;102834.13;;;-7.84;100.00
1480;BME280;732;51.698;4.886;2022-12-18T04:10:58;102834.38;;;-7.90;100.00
1480;BME280;732;51.698;4.886;2022-12-18T04:13:31;102840.88;;;-7.84;100.00
1480;BME280;732;51.698;4.886;2022-12-18T04:16:04;102803.53;;;-8.15;100.00
1480;BME280;732;51.698;4.886;2022-12-18T04:18:34;102844.25;;;-7.93;100.00
1480;BME280;732;51.698;4.886;2022-12-18T04:21:03;102836.00;;;-8.06;100.00
1480;BME280;732;51.698;4.886;2022-12-18T04:23:32;102859.81;;;-7.98;100.00
1480;BME280;732;51.698;4.886;2022-12-18T04:26:01;102829.69;;;-8.25;100.00
1480;BME280;732;51.698;4.886;2022-12-18T04:28:54;102848.88;;;-8.13;100.00
1480;BME280;732;51.698;4.886;2022-12-18T04:31:24;102838.91;;;-8.18;100.00
1480;BME280;732;51.698;4.886;2022-12-18T04:33:53;102829.63;;;-8.18;100.00
1480;BME280;732;51.698;4.886;2022-12-18T04:36:22;102862.13;;;-8.08;100.00
1480;BME280;732;51.698;4.886;2022-12-18T04:38:50;102857.94;;;-8.08;100.00
1480;BME280;732;51.698;4.886;2022-12-18T04:41:20;102862.44;;;-8.05;100.00
1480;BME280;732;51.698;4.886;2022-12-18T04:43:51;102849.88;;;-8.19;100.00
1480;BME280;732;51.698;4.886;2022-12-18T04:46:19;102872.19;;;-8.10;100.00
1480;BME280;732;51.698;4.886;2022-12-18T04:48:49;102842.47;;;-8.25;100.00
1480;BME280;732;51.698;4.886;2022-12-18T04:51:17;102836.75;;;-8.22;100.00
1480;BME280;732;51.698;4.886;2022-12-18T04:53:52;102848.72;;;-8.14;100.00
1480;BME280;732;51.698;4.886;2022-12-18T04:56:21;102844.34;;;-8.15;100.00
1480;BME280;732;51.698;4.886;2022-12-18T04:58:49;102858.50;;;-8.10;100.00
1480;BME280;732;51.698;4.886;2022-12-18T05:01:18;102855.59;;;-8.13;100.00
1480;BME280;732;51.698;4.886;2022-12-18T05:03:48;102860.56;;;-8.15;100.00
1480;BME280;732;51.698;4.886;2022-12-18T05:06:17;102857.13;;;-8.15;100.00
1480;BME280;732;51.698;4.886;2022-12-18T05:08:45;102867.13;;;-8.17;100.00
1480;BME280;732;51.698;4.886;2022-12-18T05:11:14;102850.69;;;-8.27;100.00
1480;BME280;732;51.698;4.886;2022-12-18T05:13:44;102869.88;;;-8.15;100.00
1480;BME280;732;51.698;4.886;2022-12-18T05:16:14;102864.53;;;-8.10;100.00
1480;BME280;732;51.698;4.886;2022-12-18T05:18:42;102864.19;;;-8.13;100.00
1480;BME280;732;51.698;4.886;2022-12-18T05:21:12;102705.16;;;-8.98;100.00
1480;BME280;732;51.698;4.886;2022-12-18T05:23:40;102863.47;;;-8.12;100.00
1480;BME280;732;51.698;4.886;2022-12-18T05:26:16;102862.22;;;-8.15;100.00
1480;BME280;732;51.698;4.886;2022-12-18T05:28:45;102872.91;;;-8.11;100.00
1480;BME280;732;51.698;4.886;2022-12-18T05:31:14;102868.56;;;-8.12;100.00
1480;BME280;732;51.698;4.886;2022-12-18T05:33:42;102835.53;;;-8.26;100.00
1480;BME280;732;51.698;4.886;2022-12-18T05:36:12;102822.84;;;-8.33;100.00
1480;BME280;732;51.698;4.886;2022-12-18T05:38:41;102834.56;;;-8.19;100.00
1480;BME280;732;51.698;4.886;2022-12-18T05:41:09;102845.41;;;-8.13;100.00
1480;BME280;732;51.698;4.886;2022-12-18T05:43:39;102853.06;;;-8.13;100.00
1480;BME280;732;51.698;4.886;2022-12-18T05:46:13;102810.66;;;-8.35;100.00
1480;BME280;732;51.698;4.886;2022-12-18T05:48:43;102840.38;;;-8.20;100.00
1480;BME280;732;51.698;4.886;2022-12-18T05:51:16;102838.59;;;-8.21;100.00
1480;BME280;732;51.698;4.886;2022-12-18T05:53:46;102803.91;;;-8.35;100.00
1480;BME280;732;51.698;4.886;2022-12-18T05:56:19;102838.00;;;-8.19;100.00
1480;BME280;732;51.698;4.886;2022-12-18T05:58:52;102856.38;;;-8.14;100.00
1480;BME280;732;51.698;4.886;2022-12-18T06:01:24;102853.38;;;-8.26;100.00
1480;BME280;732;51.698;4.886;2022-12-18T06:03:53;102856.03;;;-8.17;100.00
1480;BME280;732;51.698;4.886;2022-12-18T06:06:26;102851.50;;;-8.20;100.00
1480;BME280;732;51.698;4.886;2022-12-18T06:08:57;102839.31;;;-8.22;100.00
1480;BME280;732;51.698;4.886;2022-12-18T06:11:26;102761.69;;;-8.71;100.00
1480;BME280;732;51.698;4.886;2022-12-18T06:13:56;102815.28;;;-8.40;100.00
1480;BME280;732;51.698;4.886;2022-12-18T06:16:27;102828.78;;;-8.25;100.00
1480;BME280;732;51.698;4.886;2022-12-18T06:18:56;102818.66;;;-8.32;100.00
1480;BME280;732;51.698;4.886;2022-12-18T06:21:27;102820.56;;;-8.23;100.00
1480;BME280;732;51.698;4.886;2022-12-18T06:23:57;102827.63;;;-8.20;100.00
1480;BME280;732;51.698;4.886;2022-12-18T06:26:26;102829.25;;;-8.21;100.00
1480;BME280;732;51.698;4.886;2022-12-18T06:28:55;102814.03;;;-8.28;100.00
1480;BME280;732;51.698;4.886;2022-12-18T06:31:24;102812.25;;;-8.29;100.00
1480;BME280;732;51.698;4.886;2022-12-18T06:33:53;102781.63;;;-8.44;100.00
1480;BME280;732;51.698;4.886;2022-12-18T06:36:22;102789.94;;;-8.38;100.00
1480;BME280;732;51.698;4.886;2022-12-18T06:38:52;102812.41;;;-8.27;100.00
1480;BME280;732;51.698;4.886;2022-12-18T06:41:21;102804.84;;;-8.34;100.00
1480;BME280;732;51.698;4.886;2022-12-18T06:43:49;102809.34;;;-8.32;100.00
1480;BME280;732;51.698;4.886;2022-12-18T06:46:24;102777.06;;;-8.47;100.00
1480;BME280;732;51.698;4.886;2022-12-18T06:48:52;102784.56;;;-8.48;100.00
1480;BME280;732;51.698;4.886;2022-12-18T06:51:22;102803.16;;;-8.34;100.00
1480;BME280;732;51.698;4.886;2022-12-18T06:53:52;102804.44;;;-8.30;100.00
1480;BME280;732;51.698;4.886;2022-12-18T06:56:21;102782.19;;;-8.47;100.00
1480;BME280;732;51.698;4.886;2022-12-18T06:58:49;102787.94;;;-8.41;100.00
1480;BME280;732;51.698;4.886;2022-12-18T07:01:18;102765.31;;;-8.53;100.00
1480;BME280;732;51.698;4.886;2022-12-18T07:03:51;102791.56;;;-8.39;100.00
1480;BME280;732;51.698;4.886;2022-12-18T07:06:22;102791.00;;;-8.36;100.00
1480;BME280;732;51.698;4.886;2022-12-18T07:08:54;102780.69;;;-8.45;100.00
1480;BME280;732;51.698;4.886;2022-12-18T07:11:23;102758.16;;;-8.49;100.00
1480;BME280;732;51.698;4.886;2022-12-18T07:13:52;102767.53;;;-8.41;100.00
1480;BME280;732;51.698;4.886;2022-12-18T07:16:21;102755.44;;;-8.50;100.00
1480;BME280;732;51.698;4.886;2022-12-18T07:18:53;102774.63;;;-8.38;100.00
1480;BME280;732;51.698;4.886;2022-12-18T07:21:23;102776.25;;;-8.39;100.00
1480;BME280;732;51.698;4.886;2022-12-18T07:23:53;102755.38;;;-8.43;100.00
1480;BME280;732;51.698;4.886;2022-12-18T07:26:22;102760.88;;;-8.32;100.00
1480;BME280;732;51.698;4.886;2022-12-18T07:28:55;102709.63;;;-8.57;100.00
1480;BME280;732;51.698;4.886;2022-12-18T07:31:25;102726.06;;;-8.47;100.00
1480;BME280;732;51.698;4.886;2022-12-18T07:33:54;102691.53;;;-8.52;100.00
1480;BME280;732;51.698;4.886;2022-12-18T07:36:23;102731.31;;;-8.30;100.00
1480;BME280;732;51.698;4.886;2022-12-18T07:38:53;102715.03;;;-8.23;100.00
1480;BME280;732;51.698;4.886;2022-12-18T07:41:22;102704.34;;;-8.28;100.00
1480;BME280;732;51.698;4.886;2022-12-18T07:43:50;102700.94;;;-8.20;100.00
1480;BME280;732;51.698;4.886;2022-12-18T07:46:19;102681.53;;;-8.26;100.00
1480;BME280;732;51.698;4.886;2022-12-18T07:48:47;102704.88;;;-8.15;100.00
1480;BME280;732;51.698;4.886;2022-12-18T07:51:17;102732.63;;;-8.02;100.00
1480;BME280;732;51.698;4.886;2022-12-18T07:53:46;102735.06;;;-7.95;100.00
1480;BME280;732;51.698;4.886;2022-12-18T07:56:20;102703.47;;;-8.04;100.00
1480;BME280;732;51.698;4.886;2022-12-18T07:58:55;102714.81;;;-7.94;100.00
1480;BME280;732;51.698;4.886;2022-12-18T08:01:24;102731.69;;;-7.87;100.00
1480;BME280;732;51.698;4.886;2022-12-18T08:03:52;102728.69;;;-7.83;100.00
1480;BME280;732;51.698;4.886;2022-12-18T08:06:21;102715.63;;;-7.86;100.00
1480;BME280;732;51.698;4.886;2022-12-18T08:08:52;102721.66;;;-7.77;100.00
1480;BME280;732;51.698;4.886;2022-12-18T08:11:24;102703.75;;;-7.85;100.00
1480;BME280;732;51.698;4.886;2022-12-18T08:13:53;102727.16;;;-7.65;100.00
1480;BME280;732;51.698;4.886;2022-12-18T08:16:22;102691.78;;;-7.78;100.00
1480;BME280;732;51.698;4.886;2022-12-18T08:18:52;102650.84;;;-7.95;100.00
1480;BME280;732;51.698;4.886;2022-12-18T08:21:24;102716.81;;;-7.58;100.00
1480;BME280;732;51.698;4.886;2022-12-18T08:23:57;102713.38;;;-7.59;100.00
1480;BME280;732;51.698;4.886;2022-12-18T08:26:29;102723.16;;;-7.55;100.00
1480;BME280;732;51.698;4.886;2022-12-18T08:28:59;102716.63;;;-7.44;100.00
1480;BME280;732;51.698;4.886;2022-12-18T08:31:29;102718.13;;;-7.38;100.00
1480;BME280;732;51.698;4.886;2022-12-18T08:33:58;102712.47;;;-7.27;100.00
1480;BME280;732;51.698;4.886;2022-12-18T08:36:27;102689.00;;;-7.31;100.00
1480;BME280;732;51.698;4.886;2022-12-18T08:38:56;102646.28;;;-7.41;100.00
1480;BME280;732;51.698;4.886;2022-12-18T08:41:27;102684.84;;;-7.14;100.00
1480;BME280;732;51.698;4.886;2022-12-18T08:43:57;102669.06;;;-7.18;100.00
1480;BME280;732;51.698;4.886;2022-12-18T08:46:44;102707.47;;;-6.93;100.00
1480;BME280;732;51.698;4.886;2022-12-18T08:49:13;102701.19;;;-6.79;100.00
1480;BME280;732;51.698;4.886;2022-12-18T08:51:41;102711.44;;;-6.70;100.00
1480;BME280;732;51.698;4.886;2022-12-18T08:54:12;102704.25;;;-6.74;100.00
1480;BME280;732;51.698;4.886;2022-12-18T08:56:42;102704.09;;;-6.67;100.00
1480;BME280;732;51.698;4.886;2022-12-18T08:59:10;102719.91;;;-6.46;100.00
1480;BME280;732;51.698;4.886;2022-12-18T09:01:47;102707.88;;;-6.47;100.00
1480;BME280;732;51.698;4.886;2022-12-18T09:04:16;102737.25;;;-6.26;100.00
1480;BME280;732;51.698;4.886;2022-12-18T09:06:44;102724.75;;;-6.23;100.00
1480;BME280;732;51.698;4.886;2022-12-18T09:09:13;102745.84;;;-6.09;100.00
1480;BME280;732;51.698;4.886;2022-12-18T09:11:43;102728.69;;;-6.01;100.00
1480;BME280;732;51.698;4.886;2022-12-18T09:14:11;102658.94;;;-6.24;100.00
1480;BME280;732;51.698;4.886;2022-12-18T09:16:39;102725.03;;;-5.77;100.00
1480;BME280;732;51.698;4.886;2022-12-18T09:19:09;102714.63;;;-5.87;100.00
1480;BME280;732;51.698;4.886;2022-12-18T09:21:38;102703.66;;;-5.86;100.00
1480;BME280;732;51.698;4.886;2022-12-18T09:24:15;102688.84;;;-5.72;100.00
1480;BME280;732;51.698;4.886;2022-12-18T09:26:45;102696.75;;;-5.43;100.00
1480;BME280;732;51.698;4.886;2022-12-18T09:29:14;102662.84;;;-5.49;100.00
1480;BME280;732;51.698;4.886;2022-12-18T09:31:45;102617.69;;;-5.66;100.00
1480;BME280;732;51.698;4.886;2022-12-18T09:34:13;102644.44;;;-5.45;100.00
1480;BME280;732;51.698;4.886;2022-12-18T09:36:42;102692.88;;;-5.21;100.00
1480;BME280;732;51.698;4.886;2022-12-18T09:39:10;102701.31;;;-5.14;100.00
1480;BME280;732;51.698;4.886;2022-12-18T09:41:46;102694.34;;;-5.06;100.00
1480;BME280;732;51.698;4.886;2022-12-18T09:44:23;102685.03;;;-4.87;100.00
1480;BME280;732;51.698;4.886;2022-12-18T09:47:08;102670.84;;;-4.92;100.00
1480;BME280;732;51.698;4.886;2022-12-18T09:49:42;102698.13;;;-4.84;100.00
1480;BME280;732;51.698;4.886;2022-12-18T09:52:17;102712.13;;;-4.53;100.00
1480;BME280;732;51.698;4.886;2022-12-18T09:54:53;102690.47;;;-4.47;100.00
1480;BME280;732;51.698;4.886;2022-12-18T09:57:24;102706.44;;;-4.22;100.00
1480;BME280;732;51.698;4.886;2022-12-18T10:00:04;102636.06;;;-4.43;100.00
1480;BME280;732;51.698;4.886;2022-12-18T10:02:37;102677.13;;;-4.06;100.00
1480;BME280;732;51.698;4.886;2022-12-18T10:05:10;102682.41;;;-3.85;100.00
1480;BME280;732;51.698;4.886;2022-12-18T10:07:50;102649.84;;;-3.95;100.00
1480;BME280;732;51.698;4.886;2022-12-18T10:10:36;102682.09;;;-3.60;100.00
1480;BME280;732;51.698;4.886;2022-12-18T10:13:25;102671.94;;;-3.58;100.00
1480;BME280;732;51.698;4.886;2022-12-18T10:16:09;102637.09;;;-3.65;100.00
1480;BME280;732;51.698;4.886;2022-12-18T10:19:07;102669.47;;;-3.38;100.00
1480;BME280;732;51.698;4.886;2022-12-18T10:21:45;102656.72;;;-3.37;100.00
1480;BME280;732;51.698;4.886;2022-12-18T10:24:23;102658.56;;;-3.26;100.00
1480;BME280;732;51.698;4.886;2022-12-18T10:27:08;102600.13;;;-3.47;100.00
1480;BME280;732;51.698;4.886;2022-12-18T10:29:41;102641.44;;;-3.15;100.00
1480;BME280;732;51.698;4.886;2022-12-18T10:32:16;102606.19;;;-3.26;100.00
1480;BME280;732;51.698;4.886;2022-12-18T10:34:46;102629.38;;;-3.16;100.00
1480;BME280;732;51.698;4.886;2022-12-18T10:37:18;102619.34;;;-3.03;100.00
1480;BME280;732;51.698;4.886;2022-12-18T10:39:47;102622.06;;;-2.91;100.00
1480;BME280;732;51.698;4.886;2022-12-18T10:42:33;102626.41;;;-2.90;100.00
1480;BME280;732;51.698;4.886;2022-12-18T10:45:14;102596.06;;;-3.05;100.00
1480;BME280;732;51.698;4.886;2022-12-18T10:47:44;102613.91;;;-3.06;100.00
1480;BME280;732;51.698;4.886;2022-12-18T10:50:24;102622.41;;;-2.87;100.00
1480;BME280;732;51.698;4.886;2022-12-18T10:53:20;102618.19;;;-2.76;100.00
1480;BME280;732;51.698;4.886;2022-12-18T10:55:52;102592.56;;;-2.85;100.00
1480;BME280;732;51.698;4.886;2022-12-18T10:58:25;102585.88;;;-2.73;100.00
1480;BME280;732;51.698;4.886;2022-12-18T11:01:11;102591.53;;;-2.67;100.00
1480;BME280;732;51.698;4.886;2022-12-18T11:03:43;102558.34;;;-2.84;100.00
1480;BME280;732;51.698;4.886;2022-12-18T11:06:13;102549.59;;;-2.86;100.00
1480;BME280;732;51.698;4.886;2022-12-18T11:08:57;102604.25;;;-2.58;100.00
1480;BME280;732;51.698;4.886;2022-12-18T11:11:27;102597.56;;;-2.56;100.00
1480;BME280;732;51.698;4.886;2022-12-18T11:14:02;102589.19;;;-2.54;100.00
1480;BME280;732;51.698;4.886;2022-12-18T11:16:36;102549.78;;;-2.63;100.00
1480;BME280;732;51.698;4.886;2022-12-18T11:19:33;102590.56;;;-2.47;100.00
1480;BME280;732;51.698;4.886;2022-12-18T11:22:18;102605.75;;;-2.40;100.00
1480;BME280;732;51.698;4.886;2022-12-18T11:24:55;102598.53;;;-2.34;100.00
1480;BME280;732;51.698;4.886;2022-12-18T11:27:49;102593.13;;;-2.37;100.00
1480;BME280;732;51.698;4.886;2022-12-18T11:30:25;102596.44;;;-2.18;100.00
1480;BME280;732;51.698;4.886;2022-12-18T11:33:01;102572.63;;;-2.26;100.00
1480;BME280;732;51.698;4.886;2022-12-18T11:35:39;102566.28;;;-2.19;100.00
1480;BME280;732;51.698;4.886;2022-12-18T11:38:19;102548.75;;;-2.23;100.00
1480;BME280;732;51.698;4.886;2022-12-18T11:40:55;102542.56;;;-2.15;100.00
1480;BME280;732;51.698;4.886;2022-12-18T11:43:29;102579.63;;;-1.81;100.00
1480;BME280;732;51.698;4.886;2022-12-18T11:46:05;102570.34;;;-1.79;100.00
1480;BME280;732;51.698;4.886;2022-12-18T11:48:44;102511.59;;;-2.05;100.00
1480;BME280;732;51.698;4.886;2022-12-18T11:51:20;102548.69;;;-1.81;100.00
1480;BME280;732;51.698;4.886;2022-12-18T11:53:53;102550.31;;;-1.72;100.00
1480;BME280;732;51.698;4.886;2022-12-18T11:56:32;102552.97;;;-1.60;100.00
1480;BME280;732;51.698;4.886;2022-12-18T11:59:11;102537.22;;;-1.63;100.00
1480;BME280;732;51.698;4.886;2022-12-18T12:01:51;102528.50;;;-1.65;100.00
1480;BME280;732;51.698;4.886;2022-12-18T12:04:43;102506.00;;;-1.78;100.00
1480;BME280;732;51.698;4.886;2022-12-18T12:07:34;102503.00;;;-1.72;100.00
1480;BME280;732;51.698;4.886;2022-12-18T12:10:24;102519.09;;;-1.53;100.00
1480;BME280;732;51.698;4.886;2022-12-18T12:13:13;102498.47;;;-1.53;100.00
1480;BME280;732;51.698;4.886;2022-12-18T12:15:53;102503.44;;;-1.45;100.00
1480;BME280;732;51.698;4.886;2022-12-18T12:18:37;102490.41;;;-1.46;100.00
1480;BME280;732;51.698;4.886;2022-12-18T12:21:17;102485.41;;;-1.33;100.00
1480;BME280;732;51.698;4.886;2022-12-18T12:23:53;102489.91;;;-1.31;100.00
1480;BME280;732;51.698;4.886;2022-12-18T12:26:32;102470.78;;;-1.44;100.00
1480;BME280;732;51.698;4.886;2022-12-18T12:29:18;102474.28;;;-1.44;100.00
1480;BME280;732;51.698;4.886;2022-12-18T12:32:07;102465.03;;;-1.52;100.00
1480;BME280;732;51.698;4.886;2022-12-18T12:34:49;102463.72;;;-1.47;100.00
1480;BME280;732;51.698;4.886;2022-12-18T12:37:39;102468.69;;;-1.38;100.00
1480;BME280;732;51.698;4.886;2022-12-18T12:40:17;102470.59;;;-1.36;100.00
1480;BME280;732;51.698;4.886;2022-12-18T12:43:21;102463.28;;;-1.41;100.00
1480;BME280;732;51.698;4.886;2022-12-18T12:45:55;102447.81;;;-1.41;100.00
1480;BME280;732;51.698;4.886;2022-12-18T12:48:38;102470.16;;;-1.30;100.00
1480;BME280;732;51.698;4.886;2022-12-18T12:51:16;102454.00;;;-1.39;100.00
1480;BME280;732;51.698;4.886;2022-12-18T12:53:48;102448.50;;;-1.32;100.00
1480;BME280;732;51.698;4.886;2022-12-18T12:56:20;102445.81;;;-1.34;100.00
1480;BME280;732;51.698;4.886;2022-12-18T12:58:58;102459.31;;;-1.15;100.00
1480;BME280;732;51.698;4.886;2022-12-18T13:01:36;102453.91;;;-1.18;100.00
1480;BME280;732;51.698;4.886;2022-12-18T13:04:20;102430.09;;;-1.25;100.00
1480;BME280;732;51.698;4.886;2022-12-18T13:06:58;102394.84;;;-1.48;100.00
1480;BME280;732;51.698;4.886;2022-12-18T13:09:32;102410.69;;;-1.43;100.00
1480;BME280;732;51.698;4.886;2022-12-18T13:12:08;102445.03;;;-1.21;100.00
1480;BME280;732;51.698;4.886;2022-12-18T13:15:13;102420.66;;;-1.36;100.00
1480;BME280;732;51.698;4.886;2022-12-18T13:17:48;102447.94;;;-1.28;100.00
1480;BME280;732;51.698;4.886;2022-12-18T13:20:17;102438.31;;;-1.19;100.00
1480;BME280;732;51.698;4.886;2022-12-18T13:22:48;102418.75;;;-1.27;100.00
1480;BME280;732;51.698;4.886;2022-12-18T13:25:32;102421.00;;;-1.20;100.00
1480;BME280;732;51.698;4.886;2022-12-18T13:28:14;102411.38;;;-1.23;100.00
1480;BME280;732;51.698;4.886;2022-12-18T13:30:55;102402.50;;;-1.26;100.00
1480;BME280;732;51.698;4.886;2022-12-18T13:33:41;102417.66;;;-1.19;100.00
1480;BME280;732;51.698;4.886;2022-12-18T13:36:32;102411.28;;;-1.24;100.00
1480;BME280;732;51.698;4.886;2022-12-18T13:39:33;102417.00;;;-1.17;100.00
1480;BME280;732;51.698;4.886;2022-12-18T13:42:39;102406.78;;;-1.15;100.00
1480;BME280;732;51.698;4.886;2022-12-18T13:45:42;102373.41;;;-1.35;100.00